Time;durP1;ratioP1;P1;durP2;ratioP2;P2;SDS_P1;SDS_P2;PMS_P1;PMS_P2;Temp;Humidity;BMP_temperature;BMP_pressure;BME280_temperature;BME280_humidity;BME280_pressure;Samples;Min_cycle;Max_cycle;Signal;HPM_P1;HPM_P2
2022/05/30 00:02:13;;;;;;;8.73;2.40;;;;;;;4.28;89.95;96809.50;5066315;28;20094;-63
2022/05/30 00:04:40;;;;;;;4.82;2.10;;;;;;;4.13;89.88;96799.97;5067851;28;20049;-63
2022/05/30 00:07:07;;;;;;;6.00;2.75;;;;;;;4.03;90.11;96808.53;5065493;28;20053;-63
2022/05/30 00:09:34;;;;;;;4.88;2.45;;;;;;;4.02;90.70;96803.44;5065917;28;20094;-63
2022/05/30 00:12:02;;;;;;;5.65;2.40;;;;;;;3.97;90.90;96801.41;5065872;28;20044;-63
2022/05/30 00:14:29;;;;;;;5.50;2.65;;;;;;;3.97;91.10;96796.06;5067082;28;20983;-63
2022/05/30 00:16:56;;;;;;;5.75;2.60;;;;;;;4.05;90.31;96800.28;5065544;28;20048;-63
2022/05/30 00:19:23;;;;;;;7.32;2.50;;;;;;;3.97;90.25;96793.38;5065689;28;20037;-63
2022/05/30 00:21:52;;;;;;;3.97;2.45;;;;;;;3.90;90.87;96787.25;5066265;28;20052;-63
2022/05/30 00:24:19;;;;;;;4.60;2.30;;;;;;;3.91;91.03;96794.28;5066834;28;20036;-63
2022/05/30 00:26:45;;;;;;;5.13;3.13;;;;;;;3.93;90.98;96786.00;5066520;28;20044;-63
2022/05/30 00:29:12;;;;;;;4.22;2.10;;;;;;;3.89;91.13;96791.00;5063856;28;20391;-63
2022/05/30 00:31:39;;;;;;;6.30;2.67;;;;;;;3.81;91.00;96780.56;5066591;28;20088;-63
2022/05/30 00:34:06;;;;;;;5.10;2.58;;;;;;;3.68;92.12;96778.88;5066662;28;20041;-62
2022/05/30 00:36:32;;;;;;;4.75;2.47;;;;;;;3.60;91.21;96782.63;5064087;28;20067;-63
2022/05/30 00:38:59;;;;;;;6.15;2.50;;;;;;;3.57;92.05;96781.22;5066120;28;20036;-63
2022/05/30 00:41:26;;;;;;;5.35;2.40;;;;;;;3.58;91.31;96782.06;5065400;28;20033;-63
2022/05/30 00:43:52;;;;;;;5.72;3.05;;;;;;;3.70;91.65;96779.47;5063906;28;20041;-63
2022/05/30 00:46:19;;;;;;;4.25;2.53;;;;;;;3.79;90.60;96777.31;5063886;28;20045;-63
2022/05/30 00:48:51;;;;;;;4.85;2.63;;;;;;;3.77;90.88;96775.66;5064652;28;20044;-63
2022/05/30 00:51:22;;;;;;;6.25;2.53;;;;;;;3.82;90.80;96777.69;5062037;28;20037;-63
2022/05/30 00:53:52;;;;;;;5.63;2.65;;;;;;;3.70;91.06;96771.41;5066000;28;20044;-63
2022/05/30 00:56:20;;;;;;;5.35;2.35;;;;;;;3.64;91.16;96765.91;5065622;28;20476;-62
2022/05/30 00:58:50;;;;;;;4.75;2.58;;;;;;;3.68;91.32;96766.28;5062114;28;20048;-63
2022/05/30 01:01:20;;;;;;;5.22;2.53;;;;;;;3.74;91.35;96761.91;5064009;28;20573;-63
2022/05/30 01:06:45;;;;;;;5.57;2.45;;;;;;;3.69;90.96;96753.72;5063622;28;20050;-63
2022/05/30 01:09:17;;;;;;;4.47;2.88;;;;;;;3.70;90.97;96752.69;5063719;28;20064;-62
2022/05/30 01:12:05;;;;;;;5.78;2.42;;;;;;;3.62;91.70;96751.13;5064211;28;20061;-63
2022/05/30 01:14:38;;;;;;;5.13;2.67;;;;;;;3.70;91.32;96745.47;5064000;28;20053;-63
2022/05/30 01:17:08;;;;;;;3.88;2.47;;;;;;;3.68;90.68;96752.09;5063930;28;20048;-63
2022/05/30 01:19:53;;;;;;;4.43;2.50;;;;;;;3.66;91.01;96741.59;5063463;28;20055;-63
2022/05/30 01:22:36;;;;;;;5.43;2.63;;;;;;;3.57;90.80;96746.44;5044310;28;20037;-63
2022/05/30 01:25:12;;;;;;;5.38;2.30;;;;;;;3.48;91.31;96745.91;5062897;28;20048;-63
2022/05/30 01:28:22;;;;;;;5.32;2.08;;;;;;;3.54;90.53;96746.84;5065833;28;20588;-63
2022/05/30 01:30:50;;;;;;;3.50;2.22;;;;;;;3.57;90.52;96746.44;5059082;28;20466;-63
2022/05/30 01:33:18;;;;;;;4.68;2.17;;;;;;;3.55;90.67;96742.34;5064162;28;20131;-63
2022/05/30 01:35:44;;;;;;;5.82;2.53;;;;;;;3.48;90.38;96729.03;5063026;28;20056;-63
2022/05/30 01:38:15;;;;;;;6.03;2.42;;;;;;;3.20;90.99;96731.16;5064189;28;20040;-63
2022/05/30 01:40:43;;;;;;;6.45;2.40;;;;;;;3.16;91.56;96731.81;5063549;28;20489;-63
2022/05/30 01:43:10;;;;;;;4.18;2.45;;;;;;;3.06;92.36;96733.13;5063909;28;20052;-62
2022/05/30 01:45:40;;;;;;;9.43;3.85;;;;;;;3.03;91.56;96730.06;5065325;28;20064;-63
2022/05/30 01:48:06;;;;;;;4.45;2.25;;;;;;;3.11;91.09;96732.47;5064260;28;20048;-63
2022/05/30 01:50:33;;;;;;;4.97;2.00;;;;;;;3.06;90.90;96730.44;5057143;28;20406;-63
2022/05/30 01:53:11;;;;;;;8.52;3.42;;;;;;;3.03;91.68;96727.41;5062784;28;20045;-62
2022/05/30 01:55:56;;;;;;;7.05;2.80;;;;;;;2.92;91.92;96723.59;5064928;28;20574;-63
2022/05/30 01:58:23;;;;;;;5.50;2.55;;;;;;;2.83;92.98;96726.53;5057723;28;20053;-63
2022/05/30 02:01:21;;;;;;;4.47;2.60;;;;;;;2.83;92.99;96725.69;5064030;28;20154;-63
2022/05/30 02:03:51;;;;;;;4.78;2.65;;;;;;;2.79;93.38;96721.81;5047729;28;20098;-62
2022/05/30 02:06:19;;;;;;;4.65;2.70;;;;;;;2.78;93.33;96718.34;5062978;28;20045;-62
2022/05/30 02:08:48;;;;;;;4.22;2.38;;;;;;;2.84;92.98;96724.69;5061670;28;20131;-62
2022/05/30 02:11:17;;;;;;;4.05;2.60;;;;;;;2.80;93.29;96720.81;5063297;28;20049;-63
2022/05/30 02:13:44;;;;;;;4.57;2.90;;;;;;;2.94;92.85;96726.84;5064103;28;20051;-63
2022/05/30 02:19:12;;;;;;;8.85;3.33;;;;;;;2.88;92.05;96720.53;5062807;28;20059;-62
2022/05/30 02:21:39;;;;;;;4.15;2.33;;;;;;;2.80;93.05;96726.97;5062772;28;20044;-62
2022/05/30 02:24:06;;;;;;;5.07;2.58;;;;;;;2.84;92.70;96720.13;5064272;28;20044;-62
2022/05/30 02:26:35;;;;;;;5.22;2.78;;;;;;;2.90;92.50;96717.63;5061897;28;20407;-62
2022/05/30 02:29:04;;;;;;;5.00;2.60;;;;;;;2.83;92.63;96720.34;5063764;28;20040;-62
2022/05/30 02:31:31;;;;;;;4.80;3.03;;;;;;;2.87;92.39;96710.84;5063460;28;20045;-63
2022/05/30 02:36:44;;;;;;;3.55;2.22;;;;;;;2.81;92.27;96723.28;5062876;28;20759;-62
2022/05/30 02:39:24;;;;;;;5.05;3.03;;;;;;;2.85;92.18;96724.44;5061344;28;20310;-62
2022/05/30 02:41:53;;;;;;;4.38;2.53;;;;;;;2.82;92.85;96724.06;5067582;28;20055;-62
2022/05/30 02:44:23;;;;;;;6.18;2.90;;;;;;;2.91;92.40;96717.41;5067186;28;20508;-62
2022/05/30 02:46:52;;;;;;;4.65;2.75;;;;;;;2.92;92.41;96718.25;5067746;28;20032;-63
2022/05/30 02:49:19;;;;;;;5.88;2.90;;;;;;;2.96;92.10;96722.94;5065858;28;20080;-63
2022/05/30 02:51:46;;;;;;;6.28;3.08;;;;;;;2.99;92.24;96717.13;5065717;28;20033;-63
2022/05/30 02:54:13;;;;;;;4.10;2.78;;;;;;;3.02;92.29;96723.09;5068874;28;20138;-63
2022/05/30 02:57:00;;;;;;;4.25;2.58;;;;;;;3.06;92.33;96730.44;5070408;28;20136;-63
2022/05/30 02:59:29;;;;;;;5.13;3.08;;;;;;;3.04;92.15;96721.00;5066403;28;20055;-62
2022/05/30 03:02:04;;;;;;;4.20;2.72;;;;;;;2.99;92.40;96725.16;5050795;28;20051;-63
2022/05/30 03:04:31;;;;;;;6.65;3.50;;;;;;;3.11;92.42;96717.25;5066690;28;20064;-63
2022/05/30 03:07:02;;;;;;;6.38;2.88;;;;;;;3.04;92.16;96723.69;5061694;28;20135;-63
2022/05/30 03:09:30;;;;;;;10.15;3.30;;;;;;;3.09;91.90;96727.34;5061275;28;20060;-62
2022/05/30 03:12:15;;;;;;;5.18;2.63;;;;;;;3.05;91.45;96728.81;5067247;28;20637;-63
2022/05/30 03:14:41;;;;;;;5.90;2.67;;;;;;;3.06;91.26;96724.28;5066609;28;20102;-63
2022/05/30 03:17:09;;;;;;;4.45;2.53;;;;;;;2.98;91.19;96725.38;5074354;28;20130;-63
2022/05/30 03:19:40;;;;;;;6.10;3.42;;;;;;;2.88;91.44;96727.72;5069998;28;20058;-63
2022/05/30 03:22:06;;;;;;;5.35;2.80;;;;;;;2.82;91.43;96740.13;5069439;28;20063;-63
2022/05/30 03:24:48;;;;;;;4.38;2.53;;;;;;;2.80;91.32;96744.88;5069703;28;20476;-62
2022/05/30 03:27:15;;;;;;;4.40;2.05;;;;;;;2.75;91.03;96740.16;5063394;28;20171;-62
2022/05/30 03:29:42;;;;;;;4.30;2.53;;;;;;;2.77;91.25;96748.81;5069801;28;20519;-62
2022/05/30 03:32:09;;;;;;;4.57;2.90;;;;;;;2.78;91.50;96749.59;5065850;28;20043;-63
2022/05/30 03:34:36;;;;;;;6.60;2.95;;;;;;;2.66;92.62;96757.50;5070015;28;20149;-62
2022/05/30 03:37:03;;;;;;;7.20;2.78;;;;;;;2.75;92.38;96750.84;5062842;28;20044;-63
2022/05/30 03:39:41;;;;;;;5.05;2.75;;;;;;;2.89;91.88;96750.75;5063428;28;20064;-63
2022/05/30 03:42:22;;;;;;;5.15;2.53;;;;;;;2.92;91.68;96755.69;5062828;28;20518;-63
2022/05/30 03:45:13;;;;;;;6.65;3.03;;;;;;;2.85;91.88;96756.53;5067944;28;20069;-63
2022/05/30 03:47:43;;;;;;;4.82;2.60;;;;;;;2.95;91.14;96755.25;5064120;28;20048;-63
2022/05/30 03:50:15;;;;;;;5.25;3.00;;;;;;;2.91;91.40;96754.03;5066030;28;20044;-63
2022/05/30 03:52:42;;;;;;;;;;;;;;;2.88;91.91;96757.16;5064474;28;20067;-63
2022/05/30 03:55:14;;;;;;;5.03;2.95;;;;;;;2.94;91.82;96751.75;5065136;28;19931;-63
2022/05/30 03:57:42;;;;;;;6.80;3.30;;;;;;;2.97;92.45;96756.66;5059883;28;20052;-63
2022/05/30 04:00:15;;;;;;;6.70;3.33;;;;;;;3.17;91.71;96760.22;5074080;28;20094;-63
2022/05/30 04:02:42;;;;;;;5.97;3.33;;;;;;;3.12;90.46;96755.50;5071527;28;20144;-63
2022/05/30 04:05:11;;;;;;;5.50;2.90;;;;;;;2.96;91.28;96759.56;5067653;28;20056;-63
2022/05/30 04:07:38;;;;;;;6.43;3.40;;;;;;;2.82;92.06;96758.81;5067504;28;20087;-62
2022/05/30 04:10:24;;;;;;;6.20;3.35;;;;;;;2.86;91.60;96765.38;5058682;28;20055;-62
2022/05/30 04:13:14;;;;;;;5.97;3.22;;;;;;;2.82;91.46;96761.50;5062757;28;20419;-63
2022/05/30 04:16:08;;;;;;;5.93;3.38;;;;;;;2.92;92.10;96761.03;5063944;28;20055;-63
2022/05/30 04:18:35;;;;;;;6.95;3.35;;;;;;;2.94;91.39;96759.75;5086541;28;20059;-63
2022/05/30 04:21:05;;;;;;;6.47;4.00;;;;;;;2.94;91.51;96769.63;5067802;28;20040;-63
2022/05/30 04:23:31;;;;;;;5.53;3.58;;;;;;;2.95;91.84;96768.63;5071045;28;20051;-62
2022/05/30 04:26:06;;;;;;;5.88;3.42;;;;;;;3.10;91.56;96766.41;5063745;28;20443;-62
2022/05/30 04:28:36;;;;;;;6.35;3.58;;;;;;;3.16;91.33;96769.28;5062936;28;20055;-63
2022/05/30 04:31:28;;;;;;;6.47;3.20;;;;;;;3.41;90.40;96763.88;5051390;28;20083;-62
2022/05/30 04:33:55;;;;;;;6.13;3.47;;;;;;;3.49;90.19;96766.28;5063485;28;20044;-63
2022/05/30 04:36:21;;;;;;;4.15;2.55;;;;;;;3.45;90.37;96767.75;5061481;28;20051;-62
2022/05/30 04:38:52;;;;;;;6.78;3.30;;;;;;;3.31;91.12;96768.94;5061060;28;20185;-63
2022/05/30 04:41:51;;;;;;;5.78;3.30;;;;;;;3.44;91.14;96776.00;5057841;28;20151;-63
2022/05/30 04:44:38;;;;;;;6.15;3.47;;;;;;;3.55;91.24;96771.78;5076357;28;20051;-63
2022/05/30 04:47:36;;;;;;;6.43;4.15;;;;;;;3.58;91.62;96774.81;5075587;28;20139;-64
2022/05/30 04:50:09;;;;;;;6.05;3.72;;;;;;;3.68;91.68;96773.53;5069341;28;20054;-64
2022/05/30 04:52:37;;;;;;;6.10;3.53;;;;;;;3.77;92.36;96772.97;5061733;28;20534;-64
2022/05/30 04:55:23;;;;;;;4.55;2.97;;;;;;;3.95;90.94;96778.56;5061635;28;20059;-64
2022/05/30 04:57:54;;;;;;;6.28;3.70;;;;;;;4.18;90.00;96775.19;5067466;28;20047;-64
2022/05/30 05:00:45;;;;;;;4.50;3.17;;;;;;;4.36;89.51;96773.53;5059579;28;20060;-64
2022/05/30 05:03:15;;;;;;;6.25;3.45;;;;;;;4.42;88.46;96769.94;5060063;28;20624;-64
2022/05/30 05:05:43;;;;;;;4.85;2.70;;;;;;;4.46;89.04;96776.47;5061655;28;20044;-64
2022/05/30 05:08:16;;;;;;;6.88;3.42;;;;;;;4.50;89.46;96774.97;5061155;28;20835;-64
2022/05/30 05:11:24;;;;;;;5.93;3.40;;;;;;;4.69;89.37;96777.63;5067848;28;20043;-64
2022/05/30 05:14:09;;;;;;;5.63;3.50;;;;;;;4.87;89.09;96779.41;5066596;28;20063;-64
2022/05/30 05:16:56;;;;;;;5.18;3.53;;;;;;;5.06;87.75;96787.38;5049482;28;20586;-64
2022/05/30 05:19:23;;;;;;;5.80;3.15;;;;;;;5.27;87.48;96788.69;5055052;28;20049;-63
2022/05/30 05:21:50;;;;;;;4.95;3.10;;;;;;;5.46;87.09;96791.28;5042003;28;20040;-63
2022/05/30 05:24:19;;;;;;;8.23;3.50;;;;;;;5.55;86.46;96794.41;5052309;28;20052;-64
2022/05/30 05:27:08;;;;;;;5.05;3.10;;;;;;;5.66;86.59;96785.53;5060338;28;20407;-63
2022/05/30 05:29:36;;;;;;;6.53;2.92;;;;;;;6.04;85.73;96790.69;5064680;28;20527;-64
2022/05/30 05:32:04;;;;;;;5.03;2.67;;;;;;;6.12;84.91;96798.38;5059934;28;20040;-64
2022/05/30 05:34:30;;;;;;;4.65;2.58;;;;;;;6.21;83.60;96804.19;5066608;28;20055;-64
2022/05/30 05:36:57;;;;;;;6.38;2.95;;;;;;;6.33;84.69;96804.97;5069727;28;20040;-64
2022/05/30 05:39:26;;;;;;;5.97;3.03;;;;;;;6.54;83.94;96807.22;5055992;28;20081;-64
2022/05/30 05:41:55;;;;;;;5.13;2.80;;;;;;;6.68;81.69;96813.16;5059857;28;20139;-64
2022/05/30 05:44:22;;;;;;;6.22;2.85;;;;;;;6.88;81.22;96818.06;5058150;28;20048;-62
2022/05/30 05:46:49;;;;;;;5.30;2.90;;;;;;;7.01;80.33;96803.50;5058817;28;20053;-62
2022/05/30 05:49:17;;;;;;;3.90;2.15;;;;;;;7.17;79.50;96807.28;5063080;28;20085;-62
2022/05/30 05:51:43;;;;;;;7.47;2.47;;;;;;;7.27;78.56;96807.44;5060275;28;20451;-62
2022/05/30 05:54:11;;;;;;;4.68;2.22;;;;;;;7.33;78.42;96807.53;5060489;28;20048;-62
2022/05/30 05:56:38;;;;;;;4.47;2.47;;;;;;;7.55;77.08;96808.41;5054339;28;20474;-62
2022/05/30 05:59:11;;;;;;;4.38;2.22;;;;;;;7.62;77.01;96805.53;5056026;28;20045;-62
2022/05/30 06:01:37;;;;;;;4.88;2.13;;;;;;;7.67;76.60;96813.69;5049054;28;20049;-63
2022/05/30 06:04:07;;;;;;;6.07;2.50;;;;;;;7.70;75.52;96807.00;5050301;28;20053;-62
2022/05/30 06:06:45;;;;;;;5.25;2.30;;;;;;;7.83;75.64;96813.94;5060427;28;20040;-62
2022/05/30 06:09:33;;;;;;;4.63;2.35;;;;;;;7.94;73.83;96815.72;5056441;28;20048;-62
2022/05/30 06:12:08;;;;;;;4.57;2.38;;;;;;;8.01;74.26;96820.94;5063988;28;20561;-62
2022/05/30 06:14:37;;;;;;;5.30;2.33;;;;;;;8.12;74.97;96813.78;5053016;28;20048;-62
2022/05/30 06:17:04;;;;;;;3.40;2.17;;;;;;;8.26;73.92;96811.50;5056055;28;20056;-62
2022/05/30 06:19:32;;;;;;;5.70;2.55;;;;;;;8.28;73.25;96811.25;5059220;28;20725;-63
2022/05/30 06:21:59;;;;;;;4.93;2.47;;;;;;;8.37;72.97;96804.34;5061326;28;20481;-63
2022/05/30 06:24:28;;;;;;;5.05;2.15;;;;;;;8.51;72.12;96809.41;5064093;28;20534;-62
2022/05/30 06:27:17;;;;;;;5.32;2.22;;;;;;;8.56;71.43;96812.19;5065876;28;20134;-62
2022/05/30 06:30:03;;;;;;;5.03;2.25;;;;;;;8.74;72.53;96810.19;5064908;28;20450;-62
2022/05/30 06:32:29;;;;;;;5.78;2.47;;;;;;;8.87;73.29;96822.47;5063142;28;20071;-63
2022/05/30 06:35:06;;;;;;;5.60;2.28;;;;;;;9.01;74.29;96821.00;5065220;28;20040;-62
2022/05/30 06:37:35;;;;;;;4.53;2.17;;;;;;;9.18;74.29;96826.28;5064543;28;20041;-62
2022/05/30 06:40:03;;;;;;;4.35;2.20;;;;;;;9.27;72.57;96820.41;5063878;28;20048;-63
2022/05/30 06:42:38;;;;;;;4.00;1.90;;;;;;;9.33;72.80;96822.91;5064229;28;20086;-63
2022/05/30 06:45:23;;;;;;;4.97;2.58;;;;;;;9.60;73.60;96822.03;5062355;28;20059;-63
2022/05/30 06:48:09;;;;;;;6.97;2.22;;;;;;;9.71;72.49;96830.22;5061268;28;20133;-63
2022/05/30 06:50:55;;;;;;;7.93;2.33;;;;;;;9.74;71.80;96835.09;5067872;28;20066;-63
2022/05/30 06:53:22;;;;;;;5.15;2.10;;;;;;;9.79;70.95;96831.59;5063827;28;20052;-62
2022/05/30 06:55:52;;;;;;;6.22;2.03;;;;;;;9.81;70.34;96843.00;5069188;28;20059;-62
2022/05/30 06:58:20;;;;;;;6.00;2.15;;;;;;;9.84;69.30;96840.56;5063627;28;20064;-62
2022/05/30 07:00:47;;;;;;;6.45;1.92;;;;;;;9.87;67.99;96845.47;5069101;28;20044;-63
2022/05/30 07:03:33;;;;;;;3.42;1.67;;;;;;;10.10;68.92;96837.22;5073234;28;20056;-63
2022/05/30 07:06:25;;;;;;;4.88;1.80;;;;;;;10.08;65.51;96848.31;5065351;28;20050;-63
2022/05/30 07:09:19;;;;;;;3.80;2.03;;;;;;;10.15;66.55;96848.88;5063470;28;20063;-63
2022/05/30 07:11:56;;;;;;;3.17;1.83;;;;;;;10.51;66.45;96855.59;5066904;28;20063;-63
2022/05/30 07:14:24;;;;;;;4.18;1.83;;;;;;;10.61;65.77;96855.63;5066366;28;20554;-62
2022/05/30 07:16:50;;;;;;;2.85;1.70;;;;;;;10.56;66.62;96850.19;5065081;28;20151;-63
2022/05/30 07:19:17;;;;;;;6.55;2.35;;;;;;;10.61;66.13;96852.91;5066373;28;20554;-63
2022/05/30 07:21:49;;;;;;;3.58;1.80;;;;;;;10.78;66.19;96857.31;5065858;28;20248;-63
2022/05/30 07:24:48;;;;;;;4.88;1.80;;;;;;;10.78;64.94;96854.59;5062600;28;20057;-62
2022/05/30 07:27:52;;;;;;;5.68;1.77;;;;;;;10.89;62.91;96863.56;5066793;28;20414;-62
2022/05/30 07:30:38;;;;;;;6.35;1.98;;;;;;;10.80;63.22;96850.53;5071653;28;20616;-63
2022/05/30 07:33:23;;;;;;;3.10;1.80;;;;;;;10.97;64.48;96860.34;5073451;28;20622;-63
2022/05/30 07:36:25;;;;;;;3.40;1.70;;;;;;;10.93;62.59;96857.34;5079021;28;20507;-63
2022/05/30 07:39:18;;;;;;;3.55;1.80;;;;;;;10.97;62.49;96856.81;5065624;28;20062;-63
2022/05/30 07:42:07;;;;;;;3.78;1.70;;;;;;;10.87;61.54;96858.41;5060198;28;20348;-63
2022/05/30 07:44:48;;;;;;;;;;;;;;;10.99;63.19;96862.78;5065460;28;20101;-63
2022/05/30 07:47:33;;;;;;;6.00;1.92;;;;;;;11.09;60.72;96859.28;5067882;28;19931;-63
2022/05/30 07:50:13;;;;;;;3.40;1.63;;;;;;;11.01;63.54;96855.19;5056773;28;20052;-63
2022/05/30 07:53:04;;;;;;;5.30;2.03;;;;;;;11.12;62.20;96858.72;5077757;28;20055;-63
2022/05/30 07:55:39;;;;;;;5.57;1.90;;;;;;;11.26;63.03;96861.75;5062691;28;20127;-63
2022/05/30 07:58:06;;;;;;;5.13;1.90;;;;;;;11.39;59.11;96861.22;5063233;28;20045;-64
2022/05/30 08:00:36;;;;;;;3.65;1.88;;;;;;;11.49;57.03;96856.88;5062820;28;20102;-63
2022/05/30 08:03:11;;;;;;;2.63;1.33;;;;;;;11.39;55.11;96857.69;5059463;28;20414;-63
2022/05/30 08:05:47;;;;;;;5.60;1.42;;;;;;;11.49;57.25;96846.84;5062987;28;20044;-63
2022/05/30 08:08:34;;;;;;;7.95;1.95;;;;;;;11.77;58.53;96850.13;5065116;28;20063;-63
2022/05/30 08:11:00;;;;;;;4.60;1.95;;;;;;;11.99;58.21;96856.31;5066252;28;20044;-63
2022/05/30 08:13:31;;;;;;;4.30;1.50;;;;;;;12.21;56.09;96861.47;5065148;28;20439;-63
2022/05/30 08:16:02;;;;;;;2.33;1.33;;;;;;;12.26;53.70;96858.72;5061029;28;20049;-62
2022/05/30 08:18:31;;;;;;;3.83;1.55;;;;;;;12.19;56.03;96855.47;5064736;28;20037;-62
2022/05/30 08:21:01;;;;;;;4.05;1.63;;;;;;;12.30;54.61;96854.38;5064669;28;20147;-62
2022/05/30 08:23:29;;;;;;;3.17;1.60;;;;;;;12.39;53.63;96860.06;5061862;28;20727;-62
2022/05/30 08:25:59;;;;;;;4.88;1.42;;;;;;;12.31;53.50;96861.41;5057841;28;20048;-62
2022/05/30 08:28:30;;;;;;;3.80;1.30;;;;;;;12.28;54.61;96855.75;5061354;28;20098;-63
2022/05/30 08:30:56;;;;;;;3.72;1.75;;;;;;;12.31;56.32;96863.34;5058220;28;20833;-63
2022/05/30 08:33:32;;;;;;;5.00;1.70;;;;;;;12.53;56.02;96860.25;5073272;28;20052;-63
2022/05/30 08:36:18;;;;;;;3.38;1.60;;;;;;;12.77;56.00;96865.06;5058641;28;20061;-63
2022/05/30 08:38:46;;;;;;;4.07;2.33;;;;;;;12.84;54.13;96865.59;5059700;28;20535;-63
2022/05/30 08:44:09;;;;;;;2.67;1.50;;;;;;;12.74;53.32;96855.56;5053443;28;20474;-63
2022/05/30 08:47:25;;;;;;;3.40;1.52;;;;;;;13.02;54.38;96860.59;5071785;28;20137;-64
2022/05/30 08:49:56;;;;;;;3.90;1.67;;;;;;;13.01;53.19;96854.34;5060745;28;20036;-63
2022/05/30 08:52:43;;;;;;;3.42;2.05;;;;;;;12.82;51.14;96853.34;5077904;28;20043;-63
2022/05/30 08:55:35;;;;;;;6.25;1.80;;;;;;;12.93;53.36;96852.22;5061342;28;20121;-63
2022/05/30 08:58:41;;;;;;;4.30;1.92;;;;;;;13.23;53.50;96853.13;5053189;28;20044;-63
2022/05/30 09:01:25;;;;;;;5.13;2.03;;;;;;;13.53;54.08;96851.31;5056170;28;20044;-63
2022/05/30 09:04:23;;;;;;;4.05;1.67;;;;;;;13.68;51.86;96852.28;5045854;28;20048;-63
2022/05/30 09:07:14;;;;;;;5.18;2.00;;;;;;;13.77;49.77;96850.56;5054328;28;20045;-63
2022/05/30 09:09:45;;;;;;;4.45;1.65;;;;;;;13.78;49.25;96848.66;5056236;28;20040;-62
2022/05/30 09:12:36;;;;;;;4.97;1.90;;;;;;;13.99;52.38;96854.72;5081137;28;20059;-63
2022/05/30 09:15:32;;;;;;;4.57;2.03;;;;;;;14.11;50.28;96857.06;5061945;28;20431;-63
2022/05/30 09:18:00;;;;;;;3.30;1.88;;;;;;;14.20;50.62;96854.53;5072476;28;20068;-62
2022/05/30 09:20:29;;;;;;;5.70;2.10;;;;;;;14.23;49.75;96853.13;5061700;28;20036;-63
2022/05/30 09:23:01;;;;;;;3.80;2.05;;;;;;;13.95;49.76;96864.56;5077904;28;20036;-63
2022/05/30 09:28:47;;;;;;;3.28;1.50;;;;;;;13.62;45.10;96858.84;5062389;28;20827;-63
2022/05/30 09:31:53;;;;;;;2.75;1.45;;;;;;;13.59;48.17;96856.69;5073743;28;20043;-63
2022/05/30 09:34:37;;;;;;;5.25;1.90;;;;;;;13.60;48.88;96861.84;5060661;28;20067;-62
2022/05/30 09:37:29;;;;;;;3.15;1.38;;;;;;;13.91;46.48;96856.16;5061396;28;20158;-63
2022/05/30 09:40:37;;;;;;;6.40;1.85;;;;;;;13.75;44.49;96865.56;5058641;28;20048;-63
2022/05/30 09:43:39;;;;;;;3.08;1.40;;;;;;;14.12;44.56;96861.38;5061311;28;20044;-63
2022/05/30 09:46:17;;;;;;;6.03;1.48;;;;;;;14.50;43.40;96860.72;5060077;28;20048;-63
2022/05/30 09:49:23;;;;;;;3.00;1.48;;;;;;;14.47;44.93;96860.47;5052400;28;20117;-63
2022/05/30 09:52:01;;;;;;;3.20;1.48;;;;;;;14.48;42.77;96856.69;5050653;28;20051;-64
2022/05/30 09:54:28;;;;;;;3.80;1.52;;;;;;;14.89;40.87;96858.13;5060410;28;20102;-63
2022/05/30 09:57:05;;;;;;;4.40;1.15;;;;;;;15.12;38.90;96859.16;5060707;28;20055;-64
2022/05/30 10:00:18;;;;;;;3.83;0.85;;;;;;;15.31;37.09;96853.72;5063232;28;20049;-63
2022/05/30 10:03:22;;;;;;;2.92;1.15;;;;;;;15.33;35.95;96853.41;5060634;28;20797;-63
2022/05/30 10:05:50;;;;;;;6.25;1.55;;;;;;;15.63;37.87;96856.78;5058117;28;20083;-63
2022/05/30 10:08:27;;;;;;;5.38;1.30;;;;;;;15.83;38.88;96858.34;5059504;28;20700;-63
2022/05/30 10:11:02;;;;;;;3.13;1.15;;;;;;;15.80;38.37;96856.22;5060617;28;20052;-63
2022/05/30 10:13:38;;;;;;;3.13;1.20;;;;;;;15.75;39.38;96853.56;5061754;28;20041;-63
2022/05/30 10:16:32;;;;;;;3.63;1.23;;;;;;;16.18;38.21;96849.84;5049425;28;20125;-64
2022/05/30 10:19:03;;;;;;;2.50;1.30;;;;;;;16.27;37.88;96849.13;5061928;28;20440;-63
2022/05/30 10:28:50;;;;;;;3.22;1.20;;;;;;;16.41;37.10;96855.44;5062693;28;20557;-63
2022/05/30 10:31:52;;;;;;;4.05;1.27;;;;;;;16.72;36.73;96862.19;5058866;28;20055;-63
2022/05/30 10:34:58;;;;;;;3.30;1.20;;;;;;;16.94;35.94;96852.44;5059713;28;20125;-63
2022/05/30 10:37:35;;;;;;;3.53;1.10;;;;;;;16.36;35.87;96860.97;5055836;28;20558;-63
2022/05/30 10:40:16;;;;;;;3.58;1.17;;;;;;;16.59;33.84;96866.56;5061059;28;20051;-63
2022/05/30 10:42:57;;;;;;;3.88;1.25;;;;;;;16.60;34.33;96862.72;5073353;28;20052;-64
2022/05/30 10:45:40;;;;;;;2.80;1.30;;;;;;;16.85;34.76;96860.59;5058445;28;20052;-63
2022/05/30 10:48:16;;;;;;;2.58;0.90;;;;;;;16.74;33.64;96868.19;5062363;28;20048;-63
2022/05/30 10:50:54;;;;;;;2.10;1.10;;;;;;;15.90;34.13;96868.88;5044461;28;20048;-63
2022/05/30 10:53:33;;;;;;;4.03;1.42;;;;;;;15.86;35.99;96870.59;5060324;28;20040;-63
2022/05/30 10:56:39;;;;;;;3.95;1.40;;;;;;;16.05;34.85;96865.09;5062919;28;20076;-63
2022/05/30 10:59:33;;;;;;;2.25;1.10;;;;;;;16.17;35.42;96864.63;5060272;28;20590;-62
2022/05/30 11:02:30;;;;;;;2.95;1.10;;;;;;;16.32;35.29;96868.16;5057439;28;20064;-62
2022/05/30 11:05:00;;;;;;;1.45;0.90;;;;;;;16.12;35.20;96872.91;5081321;28;20059;-63
2022/05/30 11:07:41;;;;;;;4.78;1.20;;;;;;;15.85;35.32;96875.22;5063794;28;20067;-63
2022/05/30 11:10:17;;;;;;;3.80;1.30;;;;;;;15.79;35.42;96873.72;5063902;28;20075;-63
2022/05/30 11:12:52;;;;;;;2.58;1.10;;;;;;;15.82;35.40;96873.09;5064990;28;20510;-63
2022/05/30 11:15:36;;;;;;;2.35;1.27;;;;;;;15.36;35.88;96877.34;5063867;28;20557;-63
2022/05/30 11:18:48;;;;;;;3.40;1.02;;;;;;;15.84;35.82;96872.78;5065676;28;20063;-63
2022/05/30 11:21:56;;;;;;;2.47;1.05;;;;;;;16.21;36.47;96865.63;5064949;28;20059;-63
2022/05/30 11:24:22;;;;;;;2.78;1.20;;;;;;;16.31;35.09;96872.00;5064164;28;20051;-63
2022/05/30 11:27:17;;;;;;;3.22;1.27;;;;;;;16.12;35.37;96876.47;5065244;28;20044;-63
2022/05/30 11:30:31;;;;;;;2.88;1.15;;;;;;;16.36;35.00;96877.38;5064507;28;20542;-63
2022/05/30 11:33:07;;;;;;;2.75;1.00;;;;;;;16.53;34.18;96876.78;5056757;28;20064;-63
2022/05/30 11:35:37;;;;;;;3.17;1.08;;;;;;;16.50;34.93;96877.38;5061397;28;20135;-63
2022/05/30 11:38:14;;;;;;;4.60;1.35;;;;;;;16.58;34.71;96884.09;5067717;28;20037;-63
2022/05/30 11:41:13;;;;;;;2.53;1.20;;;;;;;17.10;32.66;96874.84;5062245;28;20416;-63
2022/05/30 11:43:53;;;;;;;2.72;1.10;;;;;;;17.37;32.13;96873.97;5065154;28;20047;-62
2022/05/30 11:46:47;;;;;;;3.95;1.15;;;;;;;17.50;32.10;96872.31;5059059;28;20049;-63
2022/05/30 11:49:51;;;;;;;5.78;1.38;;;;;;;18.25;30.89;96882.00;5056568;28;20048;-63
2022/05/30 11:52:43;;;;;;;3.20;0.95;;;;;;;17.45;32.14;96875.16;5061254;28;20051;-63
2022/05/30 11:55:23;;;;;;;3.05;1.15;;;;;;;18.19;31.48;96878.59;5063187;28;20540;-63
2022/05/30 11:57:56;;;;;;;2.53;1.10;;;;;;;18.71;31.14;96868.16;5065032;28;20055;-63
2022/05/30 12:00:43;;;;;;;3.78;1.10;;;;;;;18.73;28.87;96876.88;5064232;28;20163;-63
2022/05/30 12:03:34;;;;;;;4.20;1.40;;;;;;;18.38;29.00;96880.28;5063818;28;20526;-63
2022/05/30 12:06:16;;;;;;;2.55;1.20;;;;;;;18.64;28.85;96878.78;5066569;28;20119;-63
2022/05/30 12:09:09;;;;;;;5.18;1.00;;;;;;;18.42;29.17;96875.78;5067479;28;20044;-63
2022/05/30 12:12:00;;;;;;;2.95;1.20;;;;;;;19.30;27.84;96869.75;5053821;28;20079;-64
2022/05/30 12:14:37;;;;;;;4.05;1.55;;;;;;;19.21;28.72;96875.22;5062771;28;20081;-63
2022/05/30 12:17:27;;;;;;;3.17;1.42;;;;;;;19.76;27.26;96877.66;5063688;28;20052;-63
2022/05/30 12:25:52;;;;;;;4.03;1.38;;;;;;;18.13;30.84;96879.03;5064121;28;20056;-63
2022/05/30 12:28:28;;;;;;;2.15;1.10;;;;;;;17.77;31.91;96877.97;5063204;28;20056;-63
2022/05/30 12:31:03;;;;;;;3.40;1.65;;;;;;;17.47;32.23;96878.38;5063484;28;20059;-63
2022/05/30 12:33:30;;;;;;;4.55;1.55;;;;;;;17.42;31.18;96878.50;5064237;28;20044;-63
2022/05/30 12:36:06;;;;;;;3.53;1.10;;;;;;;17.13;31.88;96883.25;5062787;28;20052;-63
2022/05/30 12:38:51;;;;;;;4.03;1.58;;;;;;;17.54;31.76;96867.81;5061907;28;20522;-63
2022/05/30 12:41:31;;;;;;;3.15;1.33;;;;;;;18.13;31.24;96879.03;5076945;28;20053;-63
2022/05/30 12:43:59;;;;;;;2.63;1.08;;;;;;;18.47;29.92;96883.09;5072654;28;20524;-63
2022/05/30 12:46:31;;;;;;;2.20;1.25;;;;;;;18.29;30.39;96877.53;5079878;28;20048;-63
2022/05/30 12:49:15;;;;;;;4.47;1.77;;;;;;;18.94;28.75;96876.31;5072285;28;20072;-63
2022/05/30 12:52:14;;;;;;;2.50;1.08;;;;;;;19.83;27.96;96888.16;5062803;28;20568;-63
2022/05/30 12:54:57;;;;;;;4.07;1.20;;;;;;;20.24;28.01;96888.75;5063735;28;20036;-63